Terminal Aerodrome Forecast
Issued by NWS Paducah, KY

Home | Current Version | Previous Version | Text Only | Print | Product List | Glossary On
Versions: 1 2 3 4 5 6 7 8 9 10 11 12 13 14 15 16 17 18 19 20
000
FTUS43 KPAH 040520
TAFEVV
TAF
KEVV 040520Z 0406/0506 35003KT 4SM BR SCT030
     FM040800 00000KT 5SM BR BKN030
      TEMPO 0409/0413 2SM BR SCT006 BKN025
     FM041700 04003KT P6SM BKN035
     FM050100 00000KT P6SM SCT050=

USA.gov is the U.S. government's official web portal to all federal, state and local government web resources and services.